createdAt,value
2022-08-04T00:00:20.092Z,22.70
2022-08-04T00:03:19.265Z,22.70
2022-08-04T00:06:12.032Z,22.60
2022-08-04T00:08:53.127Z,22.60
2022-08-04T00:11:26.106Z,22.50
2022-08-04T00:14:10.846Z,22.50
2022-08-04T00:16:40.955Z,22.40
2022-08-04T00:19:17.973Z,22.40
2022-08-04T00:21:59.821Z,22.40
2022-08-04T00:24:33.831Z,22.40
2022-08-04T00:27:00.634Z,22.40
2022-08-04T00:29:27.746Z,22.40
2022-08-04T00:31:57.929Z,22.40
2022-08-04T00:34:29.581Z,22.40
2022-08-04T00:36:57.639Z,22.30
2022-08-04T00:39:25.697Z,22.30
2022-08-04T00:42:18.738Z,22.30
2022-08-04T00:45:26.692Z,22.30
2022-08-04T00:48:18.102Z,22.20
2022-08-04T00:51:11.724Z,22.20
2022-08-04T00:53:54.020Z,22.10
2022-08-04T00:57:04.104Z,22.10
2022-08-04T00:59:36.398Z,22.10
2022-08-04T01:02:21.702Z,22.10
2022-08-04T01:05:25.345Z,22.20
2022-08-04T01:08:34.768Z,22.20
2022-08-04T01:11:16.145Z,22.20
2022-08-04T01:13:58.156Z,22.10
2022-08-04T01:16:31.445Z,22.10
2022-08-04T01:19:14.380Z,22.10
2022-08-04T01:22:15.153Z,22.10
2022-08-04T01:24:57.258Z,22.10
2022-08-04T01:28:03.497Z,22.10
2022-08-04T01:30:36.101Z,22.20
2022-08-04T01:33:05.076Z,22.10
2022-08-04T01:35:47.949Z,22.10
2022-08-04T01:38:18.278Z,22.10
2022-08-04T01:40:53.003Z,22.00
2022-08-04T01:43:21.179Z,22.00
2022-08-04T01:45:58.443Z,21.90
2022-08-04T01:48:46.281Z,21.90
2022-08-04T01:51:13.359Z,21.80
2022-08-04T01:53:42.475Z,21.80
2022-08-04T01:56:12.185Z,21.90
2022-08-04T01:58:40.353Z,21.90
2022-08-04T02:01:10.014Z,21.80
2022-08-04T02:04:18.813Z,21.80
2022-08-04T02:07:02.496Z,21.80
2022-08-04T02:09:54.307Z,21.70
2022-08-04T02:12:31.905Z,21.70
2022-08-04T02:19:25.112Z,21.60
2022-08-04T02:21:58.183Z,21.50
2022-08-04T02:24:28.994Z,21.40
2022-08-04T02:26:57.796Z,21.40
2022-08-04T02:29:49.974Z,21.30
2022-08-04T02:32:28.945Z,21.20
2022-08-04T02:35:14.589Z,21.10
2022-08-04T02:37:47.781Z,21.10
2022-08-04T02:40:20.854Z,21.10
2022-08-04T02:42:48.099Z,21.10
2022-08-04T02:45:19.739Z,21.10
2022-08-04T02:48:08.115Z,21.10
2022-08-04T02:50:35.855Z,21.10
2022-08-04T02:53:04.556Z,21.10
2022-08-04T02:55:38.348Z,21.10
2022-08-04T02:58:06.426Z,21.10
2022-08-04T03:00:33.279Z,21.10
2022-08-04T03:03:24.601Z,21.10
2022-08-04T03:06:11.339Z,21.10
2022-08-04T03:09:06.493Z,21.10
2022-08-04T03:11:48.907Z,20.90
2022-08-04T03:14:51.970Z,20.80
2022-08-04T03:18:05.794Z,20.70
2022-08-04T03:21:00.179Z,20.50
2022-08-04T03:23:35.962Z,20.40
2022-08-04T03:26:19.403Z,20.30
2022-08-04T03:29:36.112Z,20.20
2022-08-04T03:32:23.983Z,20.10
2022-08-04T03:35:22.523Z,20.00
2022-08-04T03:38:14.671Z,20.00
2022-08-04T03:41:06.446Z,20.10
2022-08-04T03:43:57.482Z,20.20
2022-08-04T03:47:00.769Z,20.30
2022-08-04T03:49:49.099Z,20.40
2022-08-04T03:53:11.584Z,20.50
2022-08-04T03:56:00.215Z,20.60
2022-08-04T03:59:04.372Z,20.60
2022-08-04T04:02:02.719Z,20.60
2022-08-04T04:05:15.166Z,20.60
2022-08-04T04:08:16.450Z,20.70
2022-08-04T04:11:07.451Z,20.70
2022-08-04T04:14:03.408Z,20.80
2022-08-04T04:16:43.704Z,20.90
2022-08-04T04:19:35.326Z,20.90
2022-08-04T04:22:22.255Z,21.00
2022-08-04T04:25:19.148Z,21.10
2022-08-04T04:28:44.216Z,21.40
2022-08-04T04:31:19.216Z,21.70
2022-08-04T04:34:02.338Z,21.90
2022-08-04T04:36:44.331Z,22.20
2022-08-04T04:39:43.607Z,22.40
2022-08-04T04:42:32.174Z,22.70
2022-08-04T04:45:04.438Z,22.90
2022-08-04T04:48:09.201Z,23.10
2022-08-04T04:50:55.718Z,23.30
2022-08-04T04:53:47.556Z,23.60
2022-08-04T04:56:40.877Z,23.80
2022-08-04T04:59:12.948Z,23.90
2022-08-04T05:01:53.528Z,24.10
2022-08-04T05:04:31.974Z,24.40
2022-08-04T05:07:28.771Z,24.50
2022-08-04T05:10:07.953Z,24.50
2022-08-04T05:14:35.580Z,24.60
2022-08-04T05:15:48.762Z,24.80
2022-08-04T05:18:22.539Z,25.00
2022-08-04T05:20:57.296Z,25.20
2022-08-04T05:23:28.829Z,25.30
2022-08-04T05:26:09.208Z,25.30
2022-08-04T05:28:48.488Z,25.30
2022-08-04T05:31:26.929Z,25.40
2022-08-04T05:33:57.666Z,25.60
2022-08-04T05:36:49.539Z,25.80
2022-08-04T05:39:21.747Z,26.10
2022-08-04T05:41:55.585Z,26.40
2022-08-04T05:44:27.398Z,26.70
2022-08-04T05:46:58.640Z,27.00
2022-08-04T05:49:28.232Z,27.30
2022-08-04T05:51:59.538Z,27.60
2022-08-04T05:54:27.849Z,28.00
2022-08-04T05:56:57.028Z,28.40
2022-08-04T05:59:28.077Z,28.90
2022-08-04T06:01:59.193Z,29.40
2022-08-04T06:04:39.501Z,30.00
2022-08-04T06:07:07.803Z,30.50
2022-08-04T06:09:34.887Z,31.00
2022-08-04T06:12:06.708Z,31.50
2022-08-04T06:14:38.582Z,32.10
2022-08-04T06:17:27.133Z,32.70
2022-08-04T06:20:17.911Z,33.20
2022-08-04T06:22:47.126Z,33.50
2022-08-04T06:25:20.548Z,33.70
2022-08-04T06:27:50.323Z,33.80
2022-08-04T06:30:19.403Z,33.70
2022-08-04T06:32:48.825Z,33.90
2022-08-04T06:35:19.877Z,34.20
2022-08-04T06:37:47.729Z,34.30
2022-08-04T06:40:30.714Z,34.60
2022-08-04T06:43:03.539Z,35.20
2022-08-04T06:45:31.973Z,35.90
2022-08-04T06:48:00.838Z,36.60
2022-08-04T06:51:26.464Z,37.20
2022-08-04T06:53:16.024Z,37.70
2022-08-04T06:55:46.048Z,38.20
2022-08-04T06:58:13.537Z,38.40
2022-08-04T07:00:43.307Z,38.20
2022-08-04T07:03:11.483Z,38.10
2022-08-04T07:05:40.146Z,38.10
2022-08-04T07:08:08.068Z,38.20
2022-08-04T07:10:35.889Z,38.20
2022-08-04T07:13:03.531Z,38.30
2022-08-04T07:15:31.411Z,38.10
2022-08-04T07:18:00.251Z,38.10
2022-08-04T07:20:33.812Z,38.10
2022-08-04T07:23:04.518Z,38.10
2022-08-04T07:25:58.567Z,38.20
2022-08-04T07:28:19.559Z,38.20
2022-08-04T07:30:48.345Z,38.70
2022-08-04T07:33:18.859Z,39.10
2022-08-04T07:36:05.150Z,39.40
2022-08-04T07:38:37.497Z,39.40
2022-08-04T07:41:35.421Z,39.30
2022-08-04T07:43:54.906Z,39.40
2022-08-04T07:46:21.952Z,39.40
2022-08-04T07:48:49.107Z,39.20
2022-08-04T07:51:16.932Z,39.00
2022-08-04T07:53:54.465Z,38.90
2022-08-04T07:56:23.351Z,39.00
2022-08-04T07:58:50.606Z,39.00
2022-08-04T08:01:19.115Z,39.20
2022-08-04T08:03:46.422Z,39.40
2022-08-04T08:06:17.756Z,39.30
2022-08-04T08:09:12.425Z,39.10
2022-08-04T08:12:37.544Z,38.90
2022-08-04T08:14:36.428Z,38.90
2022-08-04T08:17:04.560Z,39.20
2022-08-04T08:19:32.487Z,39.60
2022-08-04T08:22:01.258Z,40.00
2022-08-04T08:24:30.299Z,40.30
2022-08-04T08:26:57.547Z,40.40
2022-08-04T08:29:25.778Z,40.70
2022-08-04T08:31:58.388Z,41.00
2022-08-04T08:34:29.247Z,41.40
2022-08-04T08:37:03.791Z,41.80
2022-08-04T08:39:42.497Z,41.70
2022-08-04T08:42:28.555Z,41.50
2022-08-04T08:45:17.798Z,41.20
2022-08-04T08:48:36.853Z,41.20
2022-08-04T08:51:39.999Z,41.40
2022-08-04T08:54:40.314Z,42.10
2022-08-04T08:57:19.194Z,42.40
2022-08-04T08:59:49.313Z,42.60
2022-08-04T09:03:04.260Z,42.90
2022-08-04T09:05:42.973Z,42.70
2022-08-04T09:08:49.691Z,42.80
2022-08-04T09:11:20.964Z,42.80
2022-08-04T09:13:55.124Z,42.70
2022-08-04T09:16:42.641Z,42.60
2022-08-04T09:19:38.668Z,42.00
2022-08-04T09:22:18.552Z,41.80
2022-08-04T09:24:59.355Z,42.00
2022-08-04T09:27:33.458Z,42.30
2022-08-04T09:30:11.591Z,42.60
2022-08-04T09:33:10.688Z,42.80
2022-08-04T09:35:48.964Z,42.70
2022-08-04T09:38:20.726Z,42.60
2022-08-04T09:41:20.517Z,42.40
2022-08-04T09:43:59.218Z,42.10
2022-08-04T09:46:45.915Z,42.00
2022-08-04T09:49:21.442Z,42.10
2022-08-04T09:51:57.560Z,42.10
2022-08-04T09:54:58.474Z,42.10
2022-08-04T09:57:31.399Z,41.90
2022-08-04T10:00:07.232Z,41.80
2022-08-04T10:02:44.186Z,41.90
2022-08-04T10:05:22.338Z,42.40
2022-08-04T10:08:16.841Z,42.90
2022-08-04T10:11:14.956Z,43.10
2022-08-04T10:13:52.132Z,43.10
2022-08-04T10:16:58.680Z,43.20
2022-08-04T10:19:37.538Z,42.90
2022-08-04T10:22:30.751Z,42.80
2022-08-04T10:25:04.071Z,42.70
2022-08-04T10:27:38.270Z,43.00
2022-08-04T10:30:12.096Z,43.50
2022-08-04T10:33:07.059Z,43.90
2022-08-04T10:35:40.564Z,44.10
2022-08-04T10:38:27.122Z,44.50
2022-08-04T10:41:17.974Z,44.70
2022-08-04T10:43:55.697Z,44.60
2022-08-04T10:46:36.072Z,44.60
2022-08-04T10:49:04.822Z,44.90
2022-08-04T10:51:58.672Z,44.70
2022-08-04T10:54:57.157Z,44.30
2022-08-04T10:57:33.088Z,43.90
2022-08-04T11:00:04.734Z,44.00
2022-08-04T11:02:43.180Z,44.10
2022-08-04T11:05:18.046Z,44.10
2022-08-04T11:07:50.375Z,44.20
2022-08-04T11:10:21.839Z,44.60
2022-08-04T11:12:53.813Z,44.90
2022-08-04T11:15:36.650Z,45.30
2022-08-04T11:18:16.296Z,45.60
2022-08-04T11:20:52.267Z,45.30
2022-08-04T11:23:24.225Z,44.70
2022-08-04T11:26:12.908Z,44.70
2022-08-04T11:29:04.642Z,45.00
2022-08-04T11:31:44.208Z,45.10
2022-08-04T11:34:29.175Z,45.40
2022-08-04T11:37:14.121Z,45.60
2022-08-04T11:40:04.026Z,45.70
2022-08-04T11:42:36.381Z,44.90
2022-08-04T11:45:16.032Z,45.00
2022-08-04T11:47:48.703Z,45.40
2022-08-04T11:50:22.322Z,46.00
2022-08-04T11:52:53.781Z,46.40
2022-08-04T11:55:22.932Z,46.10
2022-08-04T11:57:54.409Z,45.90
2022-08-04T12:00:25.319Z,45.50
2022-08-04T12:03:59.751Z,45.20
2022-08-04T12:06:38.920Z,45.00
2022-08-04T12:09:20.333Z,44.50
2022-08-04T12:11:47.015Z,43.90
2022-08-04T12:14:43.216Z,43.80
2022-08-04T12:17:11.808Z,44.00
2022-08-04T12:20:05.273Z,44.40
2022-08-04T12:22:44.320Z,44.50
2022-08-04T12:25:18.079Z,44.40
2022-08-04T12:27:51.004Z,43.90
2022-08-04T12:30:59.071Z,43.80
2022-08-04T12:33:41.379Z,43.90
2022-08-04T12:36:43.322Z,43.90
2022-08-04T12:39:18.718Z,44.00
2022-08-04T12:41:48.411Z,44.20
2022-08-04T12:44:33.325Z,44.40
2022-08-04T12:47:36.198Z,44.60
2022-08-04T12:50:00.313Z,45.00
2022-08-04T12:55:18.047Z,45.50
2022-08-04T12:57:46.832Z,45.00
2022-08-04T13:00:31.208Z,44.60
2022-08-04T13:03:09.724Z,44.40
2022-08-04T13:05:39.736Z,44.60
2022-08-04T13:08:08.464Z,45.20
2022-08-04T13:10:40.191Z,45.30
2022-08-04T13:13:17.224Z,44.90
2022-08-04T13:15:56.510Z,44.10
2022-08-04T13:18:29.272Z,43.50
2022-08-04T13:21:19.510Z,42.60
2022-08-04T13:24:10.002Z,41.70
2022-08-04T13:26:55.311Z,41.00
2022-08-04T13:29:57.827Z,40.30
2022-08-04T13:32:17.365Z,39.90
2022-08-04T13:34:49.583Z,39.70
2022-08-04T13:37:25.014Z,40.00
2022-08-04T13:39:56.005Z,40.50
2022-08-04T13:42:25.922Z,40.90
2022-08-04T13:45:00.167Z,41.10
2022-08-04T13:47:37.902Z,41.60
2022-08-04T13:50:22.561Z,42.20
2022-08-04T13:52:53.716Z,42.40
2022-08-04T13:55:34.342Z,41.80
2022-08-04T13:58:09.850Z,41.20
2022-08-04T14:00:53.992Z,41.10
2022-08-04T14:03:29.053Z,41.40
2022-08-04T14:06:16.450Z,41.60
2022-08-04T14:08:54.501Z,41.70
2022-08-04T14:12:10.017Z,41.60
2022-08-04T14:14:30.366Z,41.50
2022-08-04T14:17:00.169Z,41.70
2022-08-04T14:19:55.295Z,41.60
2022-08-04T14:22:28.091Z,41.10
2022-08-04T14:24:59.250Z,40.50
2022-08-04T14:27:29.335Z,40.00
2022-08-04T14:29:56.311Z,39.50
2022-08-04T14:32:26.289Z,39.20
2022-08-04T14:34:53.374Z,38.90
2022-08-04T14:37:22.484Z,38.60
2022-08-04T14:40:18.507Z,38.30
2022-08-04T14:42:55.800Z,38.10
2022-08-04T14:45:30.554Z,37.90
2022-08-04T14:47:57.780Z,37.80
2022-08-04T14:50:54.595Z,37.80
2022-08-04T14:53:26.241Z,38.00
2022-08-04T14:55:56.520Z,38.40
2022-08-04T14:58:36.399Z,38.70
2022-08-04T15:01:12.005Z,38.90
2022-08-04T15:03:52.585Z,39.10
2022-08-04T15:06:28.096Z,39.20
2022-08-04T15:08:57.576Z,39.10
2022-08-04T15:11:25.326Z,39.10
2022-08-04T15:13:53.157Z,39.10
2022-08-04T15:16:21.732Z,39.20
2022-08-04T15:18:49.520Z,39.20
2022-08-04T15:21:17.402Z,39.30
2022-08-04T15:23:44.402Z,39.40
2022-08-04T15:26:15.464Z,39.60
2022-08-04T15:28:48.664Z,39.60
2022-08-04T15:32:06.829Z,39.50
2022-08-04T15:34:05.897Z,39.30
2022-08-04T15:36:43.894Z,39.10
2022-08-04T15:39:37.014Z,39.00
2022-08-04T15:42:23.364Z,38.80
2022-08-04T15:45:03.399Z,38.70
2022-08-04T15:47:30.291Z,38.50
2022-08-04T15:50:14.262Z,38.40
2022-08-04T15:52:57.197Z,38.30
2022-08-04T15:55:38.756Z,38.20
2022-08-04T15:58:07.622Z,38.10
2022-08-04T16:00:56.722Z,38.00
2022-08-04T16:03:55.320Z,38.00
2022-08-04T16:06:22.822Z,38.00
2022-08-04T16:08:51.958Z,38.10
2022-08-04T16:11:31.628Z,38.10
2022-08-04T16:13:58.956Z,38.00
2022-08-04T16:16:32.935Z,38.00
2022-08-04T16:19:13.466Z,37.90
2022-08-04T16:21:54.210Z,37.70
2022-08-04T16:24:34.140Z,37.40
2022-08-04T16:27:02.962Z,37.20
2022-08-04T16:29:33.755Z,37.00
2022-08-04T16:32:10.935Z,36.80
2022-08-04T16:34:50.283Z,36.60
2022-08-04T16:37:21.670Z,36.30
2022-08-04T16:39:51.163Z,36.20
2022-08-04T16:42:33.891Z,36.10
2022-08-04T16:45:07.395Z,36.10
2022-08-04T16:47:49.498Z,36.10
2022-08-04T16:50:18.256Z,36.00
2022-08-04T16:52:47.331Z,35.90
2022-08-04T16:55:32.715Z,35.70
2022-08-04T16:57:59.589Z,35.50
2022-08-04T17:00:37.444Z,35.30
2022-08-04T17:03:05.598Z,35.20
2022-08-04T17:05:38.608Z,35.00
2022-08-04T17:08:29.246Z,34.90
2022-08-04T17:10:55.291Z,34.80
2022-08-04T17:14:02.600Z,34.70
2022-08-04T17:16:20.866Z,34.50
2022-08-04T17:18:49.653Z,34.40
2022-08-04T17:21:22.555Z,34.30
2022-08-04T17:24:15.528Z,34.20
2022-08-04T17:26:51.592Z,34.20
2022-08-04T17:29:20.343Z,34.20
2022-08-04T17:31:47.945Z,34.30
2022-08-04T17:34:19.269Z,34.30
2022-08-04T17:36:48.046Z,34.40
2022-08-04T17:39:21.702Z,34.50
2022-08-04T17:41:55.010Z,34.50
2022-08-04T17:44:34.236Z,34.70
2022-08-04T17:47:18.295Z,34.70
2022-08-04T17:49:53.354Z,34.70
2022-08-04T17:52:39.671Z,34.70
2022-08-04T17:55:16.247Z,34.70
2022-08-04T17:57:52.123Z,34.70
2022-08-04T18:00:20.117Z,34.60
2022-08-04T18:02:54.638Z,34.50
2022-08-04T18:05:50.301Z,34.40
2022-08-04T18:11:04.191Z,34.10
2022-08-04T18:13:42.587Z,34.00
2022-08-04T18:16:22.669Z,33.90
2022-08-04T18:19:14.416Z,33.80
2022-08-04T18:21:46.025Z,33.60
2022-08-04T18:24:34.788Z,33.40
2022-08-04T18:27:06.450Z,33.20
2022-08-04T18:29:39.355Z,33.00
2022-08-04T18:32:09.031Z,32.90
2022-08-04T18:34:40.747Z,32.80
2022-08-04T18:38:03.594Z,32.70
2022-08-04T18:40:30.002Z,32.50
2022-08-04T18:42:57.376Z,32.30
2022-08-04T18:45:34.071Z,32.20
2022-08-04T18:51:09.585Z,31.90
2022-08-04T18:53:37.085Z,31.80
2022-08-04T18:56:06.115Z,31.60
2022-08-04T18:58:43.232Z,31.40
2022-08-04T19:01:14.024Z,31.30
2022-08-04T19:03:44.722Z,31.10
2022-08-04T19:06:15.892Z,30.90
2022-08-04T19:08:45.268Z,30.80
2022-08-04T19:11:36.908Z,30.70
2022-08-04T19:14:02.013Z,30.60
2022-08-04T19:16:30.011Z,30.50
2022-08-04T19:19:01.805Z,30.40
2022-08-04T19:22:01.298Z,30.30
2022-08-04T19:24:31.997Z,30.20
2022-08-04T19:27:06.914Z,30.10
2022-08-04T19:29:37.563Z,30.00
2022-08-04T19:32:14.162Z,30.00
2022-08-04T19:34:46.452Z,29.80
2022-08-04T19:37:57.658Z,29.60
2022-08-04T19:40:10.326Z,29.40
2022-08-04T19:42:37.917Z,29.20
2022-08-04T19:45:05.412Z,29.00
2022-08-04T19:48:16.012Z,28.90
2022-08-04T19:50:19.805Z,28.90
2022-08-04T19:52:52.021Z,28.80
2022-08-04T19:55:36.844Z,28.70
2022-08-04T19:58:07.393Z,28.70
2022-08-04T20:00:37.199Z,28.70
2022-08-04T20:03:11.311Z,28.70
2022-08-04T20:05:55.358Z,28.80
2022-08-04T20:08:31.728Z,28.80
2022-08-04T20:11:00.099Z,28.80
2022-08-04T20:13:37.013Z,28.70
2022-08-04T20:16:05.810Z,28.70
2022-08-04T20:18:54.933Z,28.70
2022-08-04T20:21:36.672Z,28.70
2022-08-04T20:26:59.853Z,28.70
2022-08-04T20:29:40.444Z,28.70
2022-08-04T20:32:09.840Z,28.70
2022-08-04T20:34:37.550Z,28.60
2022-08-04T20:37:06.991Z,28.60
2022-08-04T20:39:37.651Z,28.50
2022-08-04T20:42:04.620Z,28.50
2022-08-04T20:44:31.371Z,28.30
2022-08-04T20:46:58.162Z,27.90
2022-08-04T20:49:35.112Z,27.70
2022-08-04T20:52:13.344Z,27.60
2022-08-04T20:54:42.579Z,27.50
2022-08-04T20:57:16.670Z,27.50
2022-08-04T20:59:44.119Z,27.50
2022-08-04T21:02:26.666Z,27.40
2022-08-04T21:04:53.714Z,27.40
2022-08-04T21:07:21.679Z,27.50
2022-08-04T21:09:50.517Z,27.50
2022-08-04T21:12:28.393Z,27.50
2022-08-04T21:15:13.166Z,27.50
2022-08-04T21:17:58.589Z,27.50
2022-08-04T21:20:28.829Z,27.50
2022-08-04T21:22:59.656Z,27.40
2022-08-04T21:25:28.677Z,27.40
2022-08-04T21:27:58.712Z,27.40
2022-08-04T21:30:26.765Z,27.30
2022-08-04T21:32:55.069Z,27.30
2022-08-04T21:35:30.839Z,27.30
2022-08-04T21:38:17.328Z,27.20
2022-08-04T21:40:55.993Z,27.20
2022-08-04T21:43:27.474Z,27.10
2022-08-04T21:45:56.961Z,27.10
2022-08-04T21:48:31.919Z,27.10
2022-08-04T21:51:12.913Z,27.00
2022-08-04T21:53:59.767Z,27.00
2022-08-04T21:56:26.817Z,26.90
2022-08-04T21:58:57.972Z,26.80
2022-08-04T22:01:51.937Z,26.70
2022-08-04T22:04:12.914Z,26.70
2022-08-04T22:06:39.691Z,26.60
2022-08-04T22:09:14.530Z,26.60
2022-08-04T22:14:34.773Z,26.60
2022-08-04T22:17:02.660Z,26.50
2022-08-04T22:19:50.086Z,26.50
2022-08-04T22:28:00.958Z,26.30
2022-08-04T22:30:36.562Z,26.30
2022-08-04T22:33:07.386Z,26.30
2022-08-04T22:35:48.714Z,26.30
2022-08-04T22:38:21.255Z,26.20
2022-08-04T22:41:08.469Z,26.20
2022-08-04T22:43:37.605Z,26.20
2022-08-04T22:46:22.307Z,26.20
2022-08-04T22:48:49.218Z,26.10
2022-08-04T22:51:16.685Z,26.10
2022-08-04T22:53:49.162Z,26.10
2022-08-04T22:56:21.510Z,26.10
2022-08-04T22:59:03.782Z,26.00
2022-08-04T23:01:57.863Z,25.90
2022-08-04T23:04:17.645Z,25.80
2022-08-04T23:06:44.529Z,25.70
2022-08-04T23:09:16.110Z,25.60
2022-08-04T23:11:43.748Z,25.60
2022-08-04T23:14:10.671Z,25.60
2022-08-04T23:16:40.369Z,25.50
2022-08-04T23:19:12.095Z,25.50
2022-08-04T23:21:47.322Z,25.50
2022-08-04T23:24:14.854Z,25.40
2022-08-04T23:26:41.673Z,25.40
2022-08-04T23:29:08.544Z,25.30
2022-08-04T23:31:41.080Z,25.40
2022-08-04T23:34:22.112Z,25.30
2022-08-04T23:36:49.971Z,25.20
2022-08-04T23:39:16.825Z,25.20
2022-08-04T23:41:53.815Z,25.20
2022-08-04T23:44:24.739Z,25.10
2022-08-04T23:47:03.567Z,25.10
2022-08-04T23:49:43.457Z,25.10
2022-08-04T23:52:23.105Z,25.10
2022-08-04T23:54:58.498Z,25.10
2022-08-04T23:58:02.058Z,25.10
